Time;durP1;ratioP1;P1;durP2;ratioP2;P2;SDS_P1;SDS_P2;PMS_P1;PMS_P2;Temp;Humidity;BMP_temperature;BMP_pressure;BME280_temperature;BME280_humidity;BME280_pressure;Samples;Min_cycle;Max_cycle;Signal;HPM_P1;HPM_P2
2022/03/13 00:00:27;;;;;;;32.67;14.85;;;;;;;2.11;63.83;96472.56;2065764;28;20286;-66
2022/03/13 00:01:32;;;;;;;28.40;15.05;;;;;;;2.09;63.66;96463.19;2066499;28;20218;-66
2022/03/13 00:02:34;;;;;;;27.90;14.88;;;;;;;2.09;63.99;96464.03;2068465;28;20194;-66
2022/03/13 00:03:37;;;;;;;27.88;15.82;;;;;;;1.94;64.51;96475.78;2068191;28;20197;-66
2022/03/13 00:04:39;;;;;;;25.13;13.55;;;;;;;1.98;64.49;96467.03;2069895;28;20664;-66
2022/03/13 00:05:42;;;;;;;28.60;15.65;;;;;;;2.00;64.43;96473.84;2068092;28;20742;-66
2022/03/13 00:06:46;;;;;;;25.13;14.52;;;;;;;2.01;64.46;96467.81;2068033;28;20209;-66
2022/03/13 00:07:48;;;;;;;32.80;13.88;;;;;;;2.10;64.27;96470.91;2067966;28;20197;-66
2022/03/13 00:08:55;;;;;;;26.67;14.50;;;;;;;1.98;64.17;96454.13;2067508;28;20189;-66
2022/03/13 00:09:56;;;;;;;24.63;13.57;;;;;;;2.10;64.07;96477.81;2068863;28;20668;-66
2022/03/13 00:11:17;;;;;;;22.58;13.20;;;;;;;2.14;63.94;96469.03;2069913;28;20195;-66
2022/03/13 00:12:26;;;;;;;27.23;14.13;;;;;;;2.01;63.93;96467.81;2068022;28;20202;-66
2022/03/13 00:13:34;;;;;;;25.85;14.02;;;;;;;2.02;64.35;96474.66;2067295;28;20676;-66
2022/03/13 00:14:43;;;;;;;30.48;14.32;;;;;;;1.96;64.42;96480.88;2068216;28;20286;-66
2022/03/13 00:15:45;;;;;;;28.63;13.32;;;;;;;1.88;64.88;96477.72;2068915;28;20551;-66
2022/03/13 00:16:50;;;;;;;25.60;15.05;;;;;;;1.68;65.66;96479.28;2069321;28;20205;-66
2022/03/13 00:17:53;;;;;;;26.73;15.15;;;;;;;1.75;65.68;96478.19;2068228;28;20558;-66
2022/03/13 00:18:56;;;;;;;32.35;14.77;;;;;;;1.91;64.71;96470.72;2069186;28;20198;-66
2022/03/13 00:20:00;;;;;;;27.65;14.90;;;;;;;1.85;65.08;96468.38;2068588;28;20198;-66
2022/03/13 00:21:03;;;;;;;23.33;14.25;;;;;;;1.76;65.11;96468.69;2068770;28;20300;-66
2022/03/13 00:22:05;;;;;;;37.75;15.13;;;;;;;1.76;65.56;96474.72;2065291;28;20213;-66
2022/03/13 00:23:07;;;;;;;28.67;14.05;;;;;;;1.75;65.56;96470.44;2068585;28;20206;-66
2022/03/13 00:24:08;;;;;;;28.58;15.23;;;;;;;1.74;65.83;96473.91;2071194;28;20668;-67
2022/03/13 00:25:10;;;;;;;26.40;14.10;;;;;;;1.58;65.56;96475.34;2066654;28;20194;-66
2022/03/13 00:26:14;;;;;;;28.77;17.10;;;;;;;1.57;65.31;96476.25;2067696;28;20198;-66
2022/03/13 00:27:16;;;;;;;31.35;15.63;;;;;;;1.34;66.03;96472.72;2067958;28;20548;-66
2022/03/13 00:28:17;;;;;;;30.73;15.40;;;;;;;1.20;66.54;96472.34;2067739;28;20193;-66
2022/03/13 00:29:19;;;;;;;25.20;13.73;;;;;;;1.20;66.21;96469.78;2066723;28;20213;-66
2022/03/13 00:30:21;;;;;;;32.40;15.95;;;;;;;1.20;66.08;96472.34;2067650;28;20225;-66
2022/03/13 00:31:23;;;;;;;28.98;16.00;;;;;;;0.97;67.17;96470.53;2068803;28;20182;-65
2022/03/13 00:32:25;;;;;;;30.55;15.50;;;;;;;0.99;67.13;96469.59;2069045;28;20236;-66
2022/03/13 00:33:28;;;;;;;28.60;14.75;;;;;;;0.98;67.03;96477.34;2066156;28;20187;-66
2022/03/13 00:34:29;;;;;;;26.92;15.35;;;;;;;1.03;67.04;96477.22;2068188;28;20190;-66
2022/03/13 00:35:31;;;;;;;34.55;15.75;;;;;;;1.02;67.01;96480.69;2068701;28;20229;-66
2022/03/13 00:36:34;;;;;;;25.95;13.18;;;;;;;1.02;66.75;96475.53;2068812;28;20206;-66
2022/03/13 00:37:35;;;;;;;30.40;14.50;;;;;;;1.15;66.51;96475.06;2067309;28;20201;-66
2022/03/13 00:38:37;;;;;;;29.45;15.52;;;;;;;1.15;66.52;96480.22;2069588;28;20190;-66
2022/03/13 00:39:40;;;;;;;27.10;14.68;;;;;;;1.18;66.45;96480.16;2069618;28;20202;-66
2022/03/13 00:40:41;;;;;;;31.00;15.65;;;;;;;0.99;66.75;96479.06;2067983;28;20234;-66
2022/03/13 00:41:44;;;;;;;29.60;15.15;;;;;;;0.94;66.51;96465.47;2064841;28;20205;-66
2022/03/13 00:42:45;;;;;;;29.75;15.93;;;;;;;1.04;66.53;96477.19;2067404;28;20252;-66
2022/03/13 00:43:47;;;;;;;28.17;14.85;;;;;;;1.15;66.57;96476.81;2069192;28;20205;-66
2022/03/13 00:44:49;;;;;;;27.55;13.82;;;;;;;1.05;66.44;96459.97;2067094;28;20205;-66
2022/03/13 00:45:51;;;;;;;32.60;17.27;;;;;;;1.17;66.41;96475.88;2067092;28;20218;-66
2022/03/13 00:46:53;;;;;;;28.15;14.77;;;;;;;1.07;66.59;96473.66;2068145;28;20202;-66
2022/03/13 00:47:55;;;;;;;30.90;15.25;;;;;;;1.24;66.26;96471.34;2067760;28;20733;-66
2022/03/13 00:48:57;;;;;;;28.77;15.63;;;;;;;1.35;65.53;96474.44;2068999;28;20208;-66
2022/03/13 00:49:59;;;;;;;34.42;14.60;;;;;;;1.35;65.32;96469.25;2066602;28;20569;-66
2022/03/13 00:51:00;;;;;;;31.88;15.38;;;;;;;1.30;65.52;96471.16;2068322;28;20199;-66
2022/03/13 00:52:03;;;;;;;24.58;12.57;;;;;;;1.30;66.07;96473.72;2069328;28;20696;-66
2022/03/13 00:53:05;;;;;;;25.33;14.35;;;;;;;1.24;66.09;96478.25;2067201;28;20198;-66
2022/03/13 00:54:06;;;;;;;35.38;16.48;;;;;;;1.25;66.22;96469.63;2067805;28;20199;-66
2022/03/13 00:55:08;;;;;;;30.65;15.10;;;;;;;1.29;66.15;96474.59;2067817;28;20202;-66
2022/03/13 00:56:10;;;;;;;40.42;16.25;;;;;;;1.34;65.91;96466.72;2067761;28;20202;-67
2022/03/13 00:57:12;;;;;;;35.28;15.63;;;;;;;1.19;66.38;96465.50;2067552;28;20214;-66
2022/03/13 00:58:14;;;;;;;29.48;15.60;;;;;;;1.14;66.43;96468.25;2067006;28;20198;-66
2022/03/13 00:59:15;;;;;;;29.00;16.08;;;;;;;1.22;66.13;96462.00;2067222;28;20774;-66
2022/03/13 01:00:17;;;;;;;32.30;17.95;;;;;;;1.29;65.90;96469.44;2066248;28;20581;-66
2022/03/13 01:01:18;;;;;;;26.33;15.18;;;;;;;1.22;66.20;96468.00;2067971;28;20209;-66
2022/03/13 01:02:21;;;;;;;43.00;17.05;;;;;;;1.24;65.99;96471.34;2068117;28;20538;-66
2022/03/13 01:03:34;;;;;;;28.65;16.00;;;;;;;1.17;66.70;96465.53;2067850;28;20197;-66
2022/03/13 01:04:36;;;;;;;34.65;16.73;;;;;;;1.10;66.75;96469.25;2069325;28;20201;-66
2022/03/13 01:05:37;;;;;;;30.10;15.60;;;;;;;1.12;66.44;96464.03;2069082;28;20213;-66
2022/03/13 01:06:40;;;;;;;33.92;16.58;;;;;;;1.02;66.74;96460.91;2067634;28;20658;-66
2022/03/13 01:07:42;;;;;;;32.08;17.17;;;;;;;1.09;66.87;96459.81;2068029;28;20667;-66
2022/03/13 01:08:47;;;;;;;33.85;16.15;;;;;;;1.14;66.59;96457.09;2069121;28;20220;-66
2022/03/13 01:09:49;;;;;;;30.60;16.00;;;;;;;1.12;66.81;96458.88;2067499;28;20194;-66
2022/03/13 01:10:51;;;;;;;29.27;15.88;;;;;;;1.11;66.16;96450.28;2066546;28;20236;-66
2022/03/13 01:11:52;;;;;;;27.23;16.15;;;;;;;1.19;66.00;96457.75;2067213;28;20195;-66
2022/03/13 01:12:54;;;;;;;28.80;15.95;;;;;;;1.15;66.21;96453.59;2065319;28;20193;-66
2022/03/13 01:13:56;;;;;;;33.13;16.98;;;;;;;1.23;65.50;96448.19;2069480;28;20213;-66
2022/03/13 01:14:57;;;;;;;32.58;15.20;;;;;;;1.32;64.16;96448.72;2070196;28;20704;-66
2022/03/13 01:16:17;;;;;;;29.27;14.60;;;;;;;1.38;63.33;96442.50;2065709;28;20791;-66
2022/03/13 01:17:20;;;;;;;37.35;15.98;;;;;;;1.34;63.56;96438.34;2068886;28;20664;-66
2022/03/13 01:18:22;;;;;;;28.17;14.48;;;;;;;1.35;63.28;96433.13;2067345;28;20236;-66
2022/03/13 01:19:23;;;;;;;29.98;16.08;;;;;;;1.47;63.17;96449.06;2065986;28;20197;-66
2022/03/13 01:20:24;;;;;;;26.70;13.60;;;;;;;1.60;61.30;96441.75;2064513;28;20218;-66
2022/03/13 01:21:28;;;;;;;35.47;14.45;;;;;;;1.73;61.48;96443.00;2067492;28;20220;-65
2022/03/13 01:22:30;;;;;;;31.70;16.80;;;;;;;1.69;61.99;96447.41;2068496;28;20197;-66
2022/03/13 01:23:31;;;;;;;27.02;15.32;;;;;;;1.70;62.09;96440.50;2068405;28;20204;-66
2022/03/13 01:24:43;;;;;;;32.10;15.02;;;;;;;1.75;61.81;96444.63;2070742;28;20198;-66
2022/03/13 01:25:45;;;;;;;27.60;14.15;;;;;;;1.74;61.99;96439.50;2066030;28;20285;-66
2022/03/13 01:26:52;;;;;;;34.42;15.63;;;;;;;1.69;62.56;96441.44;2067062;28;20532;-66
2022/03/13 01:27:53;;;;;;;27.27;15.02;;;;;;;1.55;63.20;96445.34;2067777;28;20867;-66
2022/03/13 01:28:57;;;;;;;30.35;15.40;;;;;;;1.52;63.34;96442.84;2068273;28;20515;-66
2022/03/13 01:29:59;;;;;;;47.47;15.95;;;;;;;1.40;64.49;96447.63;2067607;28;20198;-66
2022/03/13 01:31:01;;;;;;;29.42;15.02;;;;;;;1.27;64.69;96442.84;2068649;28;20212;-66
2022/03/13 01:32:03;;;;;;;32.63;15.80;;;;;;;1.09;65.21;96446.06;2070129;28;20190;-66
2022/03/13 01:33:05;;;;;;;26.38;13.82;;;;;;;1.03;65.44;96444.53;2066244;28;20558;-66
2022/03/13 01:34:10;;;;;;;30.63;14.15;;;;;;;1.05;65.62;96439.34;2068363;28;20582;-66
2022/03/13 01:35:19;;;;;;;31.25;15.57;;;;;;;1.20;65.00;96446.56;2067742;28;20236;-66
2022/03/13 01:36:21;;;;;;;31.35;15.45;;;;;;;1.24;64.66;96442.16;2066772;28;20202;-66
2022/03/13 01:37:26;;;;;;;34.72;16.92;;;;;;;1.11;64.64;96447.69;2065961;28;20198;-66
2022/03/13 01:38:32;;;;;;;35.47;16.67;;;;;;;1.01;64.80;96448.06;2066455;28;20206;-66
2022/03/13 01:39:34;;;;;;;39.03;17.30;;;;;;;0.83;64.99;96439.22;2068568;28;20210;-66
2022/03/13 01:40:36;;;;;;;37.28;17.13;;;;;;;0.77;65.14;96441.09;2068009;28;20234;-66
2022/03/13 01:41:38;;;;;;;36.33;17.92;;;;;;;0.57;66.04;96436.56;2067871;28;20209;-66
2022/03/13 01:42:40;;;;;;;25.30;14.73;;;;;;;0.47;66.31;96442.91;2067830;28;20195;-66
2022/03/13 01:43:43;;;;;;;33.70;17.75;;;;;;;0.49;66.53;96443.72;2068112;28;20581;-66
2022/03/13 01:44:47;;;;;;;32.17;16.65;;;;;;;0.58;66.85;96425.34;2068927;28;20276;-66
2022/03/13 01:45:48;;;;;;;33.20;15.63;;;;;;;0.42;67.70;96434.47;2066693;28;20226;-66
2022/03/13 01:46:51;;;;;;;31.73;16.13;;;;;;;0.42;68.02;96437.03;2068767;28;20203;-66
2022/03/13 01:47:53;;;;;;;30.67;16.00;;;;;;;0.40;68.25;96438.84;2068315;28;20460;-66
2022/03/13 01:48:58;;;;;;;31.73;14.88;;;;;;;0.51;67.84;96434.19;2066014;28;20201;-66
2022/03/13 01:49:59;;;;;;;29.70;16.02;;;;;;;0.56;67.52;96440.03;2067546;28;20202;-66
2022/03/13 01:51:01;;;;;;;30.90;14.13;;;;;;;0.65;67.27;96433.75;2068190;28;20201;-66
2022/03/13 01:52:03;;;;;;;33.20;15.80;;;;;;;0.68;67.27;96436.22;2069733;28;20648;-66
2022/03/13 01:53:04;;;;;;;30.38;15.55;;;;;;;0.59;66.83;96426.22;2066640;28;20197;-66
2022/03/13 01:54:11;;;;;;;27.63;14.93;;;;;;;0.69;66.98;96437.91;2068462;28;20202;-66
2022/03/13 01:55:13;;;;;;;30.20;14.82;;;;;;;0.65;66.23;96425.16;2067797;28;20708;-66
2022/03/13 01:56:14;;;;;;;30.95;16.45;;;;;;;0.60;66.60;96433.03;2067679;28;20554;-66
2022/03/13 01:57:20;;;;;;;29.88;15.55;;;;;;;0.68;66.48;96436.22;2068855;28;20197;-66
2022/03/13 01:58:22;;;;;;;28.35;14.73;;;;;;;0.66;66.18;96429.44;2069216;28;20194;-66
2022/03/13 01:59:23;;;;;;;29.45;15.60;;;;;;;0.67;66.29;96431.13;2067703;28;20190;-66
2022/03/13 02:00:25;;;;;;;36.08;14.77;;;;;;;0.69;66.25;96430.19;2065359;28;20225;-66
2022/03/13 02:01:28;;;;;;;25.40;14.07;;;;;;;0.72;65.62;96432.63;2064900;28;20205;-66
2022/03/13 02:02:33;;;;;;;27.48;16.20;;;;;;;0.70;65.78;96428.44;2064691;28;20206;-66
2022/03/13 02:03:34;;;;;;;26.35;14.13;;;;;;;0.77;65.44;96430.78;2063927;28;20212;-66
2022/03/13 02:04:35;;;;;;;27.90;16.10;;;;;;;0.91;65.41;96434.63;2065286;28;20653;-66
2022/03/13 02:05:37;;;;;;;33.10;16.08;;;;;;;0.86;65.16;96434.78;2066197;28;20713;-66
2022/03/13 02:06:39;;;;;;;30.75;14.95;;;;;;;0.83;65.43;96431.47;2067140;28;20541;-66
2022/03/13 02:07:41;;;;;;;31.83;15.40;;;;;;;0.85;65.97;96433.09;2068611;28;20507;-66
2022/03/13 02:08:47;;;;;;;29.95;15.18;;;;;;;0.76;65.88;96429.06;2067259;28;20457;-66
2022/03/13 02:09:50;;;;;;;31.52;16.33;;;;;;;0.77;66.55;96429.94;2067579;28;20269;-66
2022/03/13 02:10:51;;;;;;;39.38;15.35;;;;;;;0.81;65.63;96425.53;2070562;28;20213;-66
2022/03/13 02:11:54;;;;;;;35.72;16.00;;;;;;;0.80;65.94;96429.81;2067698;28;20201;-66
2022/03/13 02:12:56;;;;;;;38.33;16.35;;;;;;;0.86;65.63;96434.78;2067544;28;20809;-66
2022/03/13 02:13:57;;;;;;;36.38;17.02;;;;;;;0.74;65.60;96430.03;2066011;28;20202;-66
2022/03/13 02:14:59;;;;;;;28.05;15.15;;;;;;;0.62;65.97;96427.84;2066350;28;20202;-66
2022/03/13 02:16:01;;;;;;;27.75;14.23;;;;;;;0.69;65.82;96426.78;2066750;28;20202;-66
2022/03/13 02:17:03;;;;;;;28.33;15.57;;;;;;;0.70;65.88;96426.69;2067309;28;20199;-66
2022/03/13 02:18:06;;;;;;;35.22;15.20;;;;;;;0.68;65.63;96425.06;2067264;28;20201;-66
2022/03/13 02:19:07;;;;;;;29.25;15.65;;;;;;;0.66;65.62;96421.69;2067519;28;20206;-66
2022/03/13 02:20:20;;;;;;;26.30;15.05;;;;;;;0.72;65.81;96426.66;2069485;28;20197;-66
2022/03/13 02:21:27;;;;;;;30.13;14.65;;;;;;;0.72;65.23;96424.06;2066375;28;20205;-66
2022/03/13 02:22:30;;;;;;;30.20;16.25;;;;;;;0.76;65.41;96423.06;2066083;28;20223;-66
2022/03/13 02:23:32;;;;;;;24.98;14.45;;;;;;;0.74;65.23;96424.88;2067913;28;20202;-66
2022/03/13 02:24:34;;;;;;;35.75;15.00;;;;;;;0.84;65.08;96425.41;2069981;28;20644;-66
2022/03/13 02:25:35;;;;;;;30.90;15.90;;;;;;;0.63;65.38;96414.06;2068745;28;20245;-66
2022/03/13 02:26:37;;;;;;;29.63;15.65;;;;;;;0.77;65.03;96419.63;2068828;28;20209;-66
2022/03/13 02:27:38;;;;;;;23.70;13.95;;;;;;;0.71;65.24;96422.41;2069128;28;20195;-66
2022/03/13 02:28:51;;;;;;;30.65;15.05;;;;;;;0.66;65.15;96421.69;2068317;28;20214;-66
2022/03/13 02:29:52;;;;;;;30.75;16.15;;;;;;;0.76;64.68;96415.34;2069516;28;20201;-64
2022/03/13 02:31:01;;;;;;;25.42;15.45;;;;;;;0.90;64.55;96418.34;2067636;28;20197;-66
2022/03/13 02:32:03;;;;;;;27.67;15.00;;;;;;;0.81;64.73;96418.63;2070162;28;20626;-66
2022/03/13 02:33:04;;;;;;;35.40;14.82;;;;;;;0.82;64.54;96420.28;2070129;28;20202;-66
2022/03/13 02:34:11;;;;;;;30.00;15.80;;;;;;;0.85;64.80;96412.47;2069759;28;20198;-66
2022/03/13 02:35:14;;;;;;;27.13;15.10;;;;;;;0.65;65.17;96420.88;2068798;28;20229;-66
2022/03/13 02:36:42;;;;;;;26.83;15.05;;;;;;;0.50;65.96;96416.19;2070628;28;20652;-66
2022/03/13 02:37:44;;;;;;;27.35;15.70;;;;;;;0.47;66.50;96414.56;2065483;28;20224;-66
2022/03/13 02:38:48;;;;;;;28.15;14.23;;;;;;;0.05;67.16;96415.00;2071612;28;20685;-66
2022/03/13 02:39:50;;;;;;;25.63;14.65;;;;;;;0.01;67.49;96417.72;2068526;28;20728;-66
2022/03/13 02:40:53;;;;;;;25.20;15.02;;;;;;;-0.05;67.23;96421.31;2065236;28;20218;-66
2022/03/13 02:41:54;;;;;;;32.13;16.08;;;;;;;-0.08;67.62;96422.25;2069972;28;20194;-66
2022/03/13 02:42:56;;;;;;;34.08;15.50;;;;;;;-0.22;68.13;96430.38;2071536;28;20201;-66
2022/03/13 02:43:58;;;;;;;26.45;14.48;;;;;;;-0.43;69.13;96424.09;2071949;28;20198;-66
2022/03/13 02:45:00;;;;;;;40.15;16.10;;;;;;;-0.39;69.18;96427.44;2071398;28;20205;-66
2022/03/13 02:46:01;;;;;;;38.40;15.98;;;;;;;-0.33;69.26;96434.09;2068458;28;20658;-66
2022/03/13 02:47:05;;;;;;;29.17;15.05;;;;;;;-0.25;68.96;96429.63;2070574;28;20209;-66
2022/03/13 02:48:09;;;;;;;31.48;16.55;;;;;;;-0.19;68.83;96432.00;2068913;28;20255;-66
2022/03/13 02:49:22;;;;;;;34.53;16.45;;;;;;;-0.24;68.83;96434.69;2067729;28;20201;-66
2022/03/13 02:50:24;;;;;;;36.42;17.25;;;;;;;-0.22;69.02;96439.81;2066446;28;20221;-66
2022/03/13 02:51:25;;;;;;;36.35;15.05;;;;;;;-0.62;69.88;96443.50;2068296;28;20803;-66
2022/03/13 02:52:27;;;;;;;36.47;15.70;;;;;;;-0.37;69.81;96437.66;2069894;28;20723;-66
2022/03/13 02:53:29;;;;;;;35.40;16.60;;;;;;;-0.27;68.82;96429.66;2068449;28;20190;-66
2022/03/13 02:54:31;;;;;;;25.33;15.38;;;;;;;-0.82;70.53;96426.88;2069080;28;20197;-66
2022/03/13 02:55:33;;;;;;;30.17;15.00;;;;;;;-0.57;70.16;96431.34;2067485;28;20735;-66
2022/03/13 02:56:34;;;;;;;26.25;14.48;;;;;;;-0.48;69.86;96425.09;2069015;28;20202;-66
2022/03/13 02:57:36;;;;;;;31.42;15.95;;;;;;;-0.47;70.07;96429.34;2070820;28;20200;-66
2022/03/13 02:58:37;;;;;;;30.02;16.60;;;;;;;-0.41;69.78;96430.03;2066392;28;20807;-65
2022/03/13 02:59:39;;;;;;;27.35;16.33;;;;;;;-0.49;70.10;96418.25;2069859;28;20550;-66
2022/03/13 03:00:43;;;;;;;31.17;15.75;;;;;;;-0.41;70.20;96422.31;2068521;28;20225;-65
2022/03/13 03:01:45;;;;;;;28.08;16.02;;;;;;;-0.36;69.83;96424.75;2069605;28;20203;-66
2022/03/13 03:02:48;;;;;;;31.33;16.45;;;;;;;-0.23;69.25;96427.84;2071358;28;20601;-66
2022/03/13 03:03:53;;;;;;;27.17;14.60;;;;;;;-0.26;69.31;96421.03;2069124;28;20194;-66
2022/03/13 03:04:55;;;;;;;29.85;15.27;;;;;;;-0.24;68.92;96424.41;2068062;28;20211;-65
2022/03/13 03:05:57;;;;;;;29.85;15.82;;;;;;;-0.04;68.42;96422.97;2069880;28;20198;-66
2022/03/13 03:07:01;;;;;;;42.40;15.25;;;;;;;0.00;68.46;96416.88;2068210;28;20194;-66
2022/03/13 03:08:03;;;;;;;29.92;14.35;;;;;;;0.07;67.79;96418.34;2068706;28;20211;-66
2022/03/13 03:09:05;;;;;;;34.95;15.98;;;;;;;0.05;67.82;96416.72;2067701;28;20201;-66
2022/03/13 03:10:15;;;;;;;37.53;14.70;;;;;;;-0.02;68.05;96423.78;2068947;28;20292;-66
2022/03/13 03:11:17;;;;;;;27.00;15.38;;;;;;;0.09;67.50;96421.72;2064431;28;20200;-66
2022/03/13 03:12:18;;;;;;;28.27;14.77;;;;;;;0.08;67.58;96417.47;2069527;28;20205;-66
2022/03/13 03:13:20;;;;;;;29.92;15.90;;;;;;;0.10;67.67;96419.97;2068622;28;20199;-66
2022/03/13 03:14:21;;;;;;;27.52;14.88;;;;;;;0.01;68.04;96428.84;2068300;28;20217;-66
2022/03/13 03:15:23;;;;;;;28.15;15.10;;;;;;;-0.06;68.07;96422.19;2068748;28;20230;-66
2022/03/13 03:16:25;;;;;;;30.05;16.10;;;;;;;-0.09;68.27;96428.28;2068721;28;20689;-66
2022/03/13 03:17:27;;;;;;;30.75;15.88;;;;;;;-0.01;67.96;96423.72;2069483;28;20190;-66
2022/03/13 03:18:29;;;;;;;27.98;15.10;;;;;;;0.02;67.69;96415.09;2069233;28;20201;-66
2022/03/13 03:19:32;;;;;;;30.45;16.33;;;;;;;0.07;68.01;96426.09;2067744;28;20203;-66
2022/03/13 03:20:34;;;;;;;29.83;16.48;;;;;;;0.01;68.00;96423.69;2068975;28;20240;-66
2022/03/13 03:21:38;;;;;;;32.28;16.02;;;;;;;0.07;67.63;96415.78;2068448;28;20200;-66
2022/03/13 03:22:40;;;;;;;30.45;15.70;;;;;;;0.17;67.38;96424.91;2068611;28;20213;-66
2022/03/13 03:23:41;;;;;;;30.63;16.98;;;;;;;0.24;67.38;96424.75;2063337;28;20203;-66
2022/03/13 03:24:43;;;;;;;34.75;17.25;;;;;;;0.19;67.95;96419.72;2063747;28;20773;-66
2022/03/13 03:25:45;;;;;;;30.75;15.15;;;;;;;0.18;67.97;96416.31;2068381;28;20221;-66
2022/03/13 03:26:47;;;;;;;30.83;15.98;;;;;;;0.17;67.82;96419.75;2071803;28;20229;-66
2022/03/13 03:27:50;;;;;;;30.23;16.60;;;;;;;0.10;68.28;96418.28;2068957;28;20665;-66
2022/03/13 03:28:52;;;;;;;27.45;15.50;;;;;;;0.19;67.83;96415.41;2069684;28;20214;-66
2022/03/13 03:29:55;;;;;;;31.85;16.30;;;;;;;0.18;67.66;96418.03;2063288;28;20208;-66
2022/03/13 03:30:59;;;;;;;34.67;17.05;;;;;;;0.08;68.13;96408.88;2062429;28;20245;-66
2022/03/13 03:32:02;;;;;;;30.45;16.95;;;;;;;0.02;68.53;96409.94;2067122;28;20829;-66
2022/03/13 03:33:04;;;;;;;30.20;16.15;;;;;;;0.03;68.22;96414.19;2069448;28;20194;-66
2022/03/13 03:34:10;;;;;;;27.00;15.90;;;;;;;-0.04;68.71;96410.97;2066639;28;20206;-66
2022/03/13 03:35:12;;;;;;;33.83;16.15;;;;;;;-0.01;68.45;96415.16;2066431;28;20241;-66
2022/03/13 03:36:14;;;;;;;31.52;15.65;;;;;;;-0.04;68.72;96418.69;2069804;28;20224;-66
2022/03/13 03:37:16;;;;;;;30.40;16.30;;;;;;;-0.04;68.64;96418.69;2068346;28;20819;-66
2022/03/13 03:38:18;;;;;;;32.10;16.00;;;;;;;0.11;68.30;96419.09;2071220;28;20212;-66
2022/03/13 03:39:21;;;;;;;30.58;16.63;;;;;;;0.10;68.15;96423.44;2068017;28;20666;-66
2022/03/13 03:40:24;;;;;;;32.08;16.30;;;;;;;0.09;68.10;96419.16;2068141;28;20892;-66
2022/03/13 03:41:25;;;;;;;33.55;15.95;;;;;;;0.05;68.25;96425.28;2067882;28;20198;-66
2022/03/13 03:42:27;;;;;;;26.25;14.80;;;;;;;0.02;68.49;96419.38;2067518;28;20202;-66
2022/03/13 03:43:29;;;;;;;30.65;17.40;;;;;;;0.06;68.04;96427.00;2067838;28;20578;-66
2022/03/13 03:44:30;;;;;;;37.08;15.02;;;;;;;0.03;68.05;96415.94;2066834;28;20240;-66
2022/03/13 03:45:32;;;;;;;33.53;15.25;;;;;;;-0.04;68.97;96425.56;2055693;28;20234;-66
2022/03/13 03:46:34;;;;;;;29.58;15.73;;;;;;;-0.05;68.63;96419.56;2056386;28;20195;-66
2022/03/13 03:47:36;;;;;;;32.88;15.70;;;;;;;-0.01;68.41;96415.16;2069218;28;20194;-66
2022/03/13 03:48:37;;;;;;;32.25;17.08;;;;;;;0.05;68.55;96422.72;2070211;28;20578;-66
2022/03/13 03:49:39;;;;;;;27.15;14.60;;;;;;;0.10;67.71;96413.13;2070154;28;20216;-66
2022/03/13 03:50:44;;;;;;;27.73;15.10;;;;;;;-0.01;68.10;96418.59;2067463;28;20225;-66
2022/03/13 03:51:46;;;;;;;31.17;15.27;;;;;;;0.04;68.15;96418.47;2068328;28;20195;-66
2022/03/13 03:52:49;;;;;;;30.40;15.82;;;;;;;0.00;68.37;96416.88;2068077;28;20205;-66
2022/03/13 03:53:51;;;;;;;34.83;15.60;;;;;;;-0.16;68.45;96407.91;2066366;28;20194;-66
2022/03/13 03:54:52;;;;;;;29.85;16.55;;;;;;;-0.02;68.70;96410.91;2068455;28;20210;-61
2022/03/13 03:55:54;;;;;;;29.33;15.88;;;;;;;0.09;68.10;96413.16;2067482;28;20205;-60
2022/03/13 03:56:56;;;;;;;32.83;16.90;;;;;;;0.01;68.61;96418.53;2067923;28;20699;-60
2022/03/13 03:57:57;;;;;;;25.25;14.95;;;;;;;-0.04;68.22;96410.97;2066857;28;20707;-60
2022/03/13 03:58:59;;;;;;;26.13;14.95;;;;;;;0.02;68.60;96425.41;2069892;28;20248;-60
2022/03/13 04:00:00;;;;;;;29.75;15.93;;;;;;;-0.06;68.59;96419.59;2068865;28;20202;-60
2022/03/13 04:01:02;;;;;;;30.52;15.80;;;;;;;-0.04;68.58;96417.81;2067637;28;20202;-60
2022/03/13 04:02:04;;;;;;;31.35;15.13;;;;;;;-0.21;68.82;96415.75;2068280;28;20284;-60
2022/03/13 04:03:06;;;;;;;30.05;15.00;;;;;;;-0.10;68.99;96411.16;2068334;28;20727;-60
2022/03/13 04:04:09;;;;;;;31.17;15.40;;;;;;;-0.12;68.73;96412.91;2069492;28;20209;-60
2022/03/13 04:05:11;;;;;;;30.23;15.18;;;;;;;-0.21;68.45;96403.72;2068708;28;20240;-60
2022/03/13 04:06:12;;;;;;;38.00;16.58;;;;;;;-0.17;68.58;96417.38;2071398;28;20225;-60
2022/03/13 04:07:14;;;;;;;31.17;16.02;;;;;;;-0.26;68.69;96418.44;2068940;28;20210;-60
2022/03/13 04:08:16;;;;;;;26.85;14.90;;;;;;;-0.24;68.73;96421.81;2068768;28;20211;-60
2022/03/13 04:09:17;;;;;;;27.80;15.05;;;;;;;-0.20;69.18;96412.28;2068546;28;20519;-60
2022/03/13 04:10:19;;;;;;;27.20;15.77;;;;;;;-0.19;68.80;96418.31;2067165;28;20257;-60
2022/03/13 04:11:20;;;;;;;27.35;15.48;;;;;;;-0.15;69.09;96410.44;2068353;28;20209;-60
2022/03/13 04:12:22;;;;;;;38.05;16.35;;;;;;;-0.14;68.90;96408.69;2068370;28;20203;-60
2022/03/13 04:13:23;;;;;;;30.13;15.95;;;;;;;-0.12;68.54;96415.47;2068342;28;20208;-60
2022/03/13 04:14:26;;;;;;;25.40;14.70;;;;;;;-0.14;68.79;96417.25;2069442;28;20197;-60
2022/03/13 04:15:27;;;;;;;32.75;14.85;;;;;;;-0.13;68.81;96415.53;2070064;28;20313;-60
2022/03/13 04:16:29;;;;;;;35.25;15.48;;;;;;;-0.17;68.76;96412.22;2067264;28;20571;-60
2022/03/13 04:17:31;;;;;;;27.80;15.70;;;;;;;-0.19;68.27;96403.69;2067475;28;20205;-60
2022/03/13 04:18:33;;;;;;;28.40;14.80;;;;;;;-0.08;68.07;96408.50;2069290;28;20213;-60
2022/03/13 04:19:34;;;;;;;33.05;16.10;;;;;;;-0.12;68.13;96410.31;2067752;28;20243;-60
2022/03/13 04:20:36;;;;;;;26.45;14.48;;;;;;;-0.23;67.87;96405.50;2067320;28;20235;-60
2022/03/13 04:21:41;;;;;;;29.02;15.00;;;;;;;-0.16;68.44;96415.63;2068287;28;20203;-60
2022/03/13 04:22:42;;;;;;;30.35;15.80;;;;;;;-0.09;68.45;96412.00;2067189;28;20202;-60
2022/03/13 04:23:44;;;;;;;31.80;15.35;;;;;;;-0.16;68.78;96411.31;2068926;28;20211;-60
2022/03/13 04:24:45;;;;;;;30.77;15.50;;;;;;;-0.23;68.98;96407.25;2068853;28;20209;-60
2022/03/13 04:25:48;;;;;;;30.90;16.85;;;;;;;-0.30;69.35;96416.84;2069162;28;20221;-60
2022/03/13 04:26:50;;;;;;;32.53;15.70;;;;;;;-0.28;69.65;96417.66;2069243;28;20633;-60
2022/03/13 04:27:52;;;;;;;26.80;14.85;;;;;;;-0.26;69.31;96417.63;2068239;28;20202;-60
2022/03/13 04:28:54;;;;;;;30.25;15.48;;;;;;;-0.19;69.06;96411.41;2064803;28;20626;-60
2022/03/13 04:29:55;;;;;;;31.45;15.68;;;;;;;-0.16;69.08;96406.16;2068388;28;20234;-60
2022/03/13 04:30:59;;;;;;;28.38;15.05;;;;;;;-0.07;68.95;96416.19;2069537;28;20613;-61
2022/03/13 04:32:05;;;;;;;27.13;15.25;;;;;;;-0.07;68.87;96418.78;2070050;28;20209;-60
2022/03/13 04:33:07;;;;;;;37.30;16.13;;;;;;;-0.09;68.67;96417.13;2069795;28;20194;-60
2022/03/13 04:34:10;;;;;;;27.40;14.55;;;;;;;-0.11;68.61;96411.19;2066597;28;20206;-60
2022/03/13 04:35:11;;;;;;;32.53;16.65;;;;;;;-0.11;69.06;96417.19;2067724;28;20202;-60
2022/03/13 04:36:14;;;;;;;29.02;17.38;;;;;;;-0.09;68.59;96412.00;2066664;28;20194;-60
2022/03/13 04:37:16;;;;;;;31.80;14.57;;;;;;;-0.04;68.29;96410.09;2066603;28;20724;-60
2022/03/13 04:38:17;;;;;;;28.40;15.65;;;;;;;-0.11;68.68;96413.75;2068436;28;20252;-60
2022/03/13 04:39:19;;;;;;;32.92;15.02;;;;;;;-0.08;68.82;96416.22;2069762;28;20198;-60
2022/03/13 04:40:20;;;;;;;30.58;15.52;;;;;;;-0.20;68.91;96412.28;2068006;28;20225;-60
2022/03/13 04:41:22;;;;;;;28.48;14.15;;;;;;;-0.47;69.40;96413.91;2067208;28;20194;-60
2022/03/13 04:42:23;;;;;;;23.70;13.32;;;;;;;-0.43;69.55;96412.97;2069346;28;20202;-60
2022/03/13 04:43:26;;;;;;;25.33;14.50;;;;;;;-0.62;70.38;96413.47;2069195;28;20206;-60
2022/03/13 04:44:28;;;;;;;25.38;13.90;;;;;;;-0.52;69.93;96416.63;2068766;28;20201;-60
2022/03/13 04:45:29;;;;;;;27.50;14.35;;;;;;;-0.51;69.92;96412.31;2067838;28;20669;-60
2022/03/13 04:46:32;;;;;;;32.65;15.75;;;;;;;-0.55;70.12;96421.00;2068742;28;20276;-60
2022/03/13 04:47:34;;;;;;;37.38;16.88;;;;;;;-0.56;69.72;96416.75;2068086;28;20201;-60
2022/03/13 04:48:35;;;;;;;25.88;14.15;;;;;;;-0.57;69.49;96420.22;2068362;28;20200;-60
2022/03/13 04:49:37;;;;;;;30.83;15.30;;;;;;;-0.53;69.59;96421.81;2067752;28;20199;-60
2022/03/13 04:50:38;;;;;;;27.52;15.23;;;;;;;-0.53;69.74;96421.81;2068314;28;20572;-60